Terminal Aerodrome Forecast
Issued by NWS

Current Version | Previous Version | Graphics & Text | Print | Product List | Glossary On
Versions: 1 2 3 4 5 6 7 8 9 10 11 12 13 14 15 16 17 18 19 20 21 22 23 24 25
000
FTUS41 KRNK 240648 AAA
TAFLWB
TAF AMD
KLWB 240648Z 2407/2506 00000KT P6SM SCT100 BKN250
     FM241000 14004KT P6SM BKN090
     FM241600 21004KT P6SM BKN060
     FM241700 21006KT P6SM SCT050
     FM242300 00000KT P6SM SCT050=

USA.gov is the U.S. government's official web portal to all federal, state and local government web resources and services.